Terminal Aerodrome Forecast
Issued by NWS

Home | Current Version | Previous Version | Graphics & Text | Print | Product List | Glossary On
Versions: 1 2 3 4 5 6 7 8 9 10 11 12 13 14 15 16 17 18 19 20 21 22 23 24 25 26
449
FTUS45 KGGW 271130
TAFGDV
TAF
KGDV 271130Z 2712/2812 04005KT P6SM -SHRA OVC090
     FM271300 06005KT P6SM VCSH OVC090
     FM271700 11008KT P6SM BKN070
     FM271800 11009KT P6SM VCSH BKN070 PROB30 2721/2724 6SM TS
      OVC025CB=

USA.gov is the U.S. government's official web portal to all federal, state and local government web resources and services.